Time;durP1;ratioP1;P1;durP2;ratioP2;P2;SDS_P1;SDS_P2;PMS_P1;PMS_P2;Temp;Humidity;BMP_temperature;BMP_pressure;BME280_temperature;BME280_humidity;BME280_pressure;Samples;Min_cycle;Max_cycle;Signal;HPM_P1;HPM_P2
2023/01/22 00:01:07;;;;;;;0.50;0.50;;;1.30;99.90;;;;;;5068205;28;20436;-82
2023/01/22 00:03:34;;;;;;;0.40;0.40;;;1.40;99.90;;;;;;5068701;28;20190;-83
2023/01/22 00:05:59;;;;;;;0.50;0.50;;;1.30;99.90;;;;;;5065063;28;20433;-82
2023/01/22 00:08:25;;;;;;;0.40;0.40;;;1.30;99.90;;;;;;5059022;28;20459;-82
2023/01/22 00:10:52;;;;;;;0.40;0.40;;;1.20;99.90;;;;;;5068420;28;20197;-82
2023/01/22 00:13:18;;;;;;;0.40;0.40;;;1.30;99.90;;;;;;5059065;28;20275;-83
2023/01/22 00:15:44;;;;;;;0.50;0.50;;;1.30;99.90;;;;;;5060501;28;20440;-82
2023/01/22 00:18:09;;;;;;;0.40;0.40;;;1.30;99.90;;;;;;5065223;28;20483;-82
2023/01/22 00:20:35;;;;;;;0.40;0.40;;;1.30;99.90;;;;;;5069520;28;20198;-83
2023/01/22 00:23:00;;;;;;;0.37;0.37;;;1.30;99.90;;;;;;5051627;28;20202;-83
2023/01/22 00:25:26;;;;;;;0.40;0.40;;;1.30;99.90;;;;;;5062443;28;20189;-83
2023/01/22 00:27:52;;;;;;;0.40;0.40;;;1.30;99.90;;;;;;5070692;28;20200;-83
2023/01/22 00:30:18;;;;;;;0.40;0.40;;;1.40;99.90;;;;;;5058466;28;20208;-83
2023/01/22 00:32:45;;;;;;;0.47;0.47;;;1.30;99.90;;;;;;5052386;28;20449;-83
2023/01/22 00:35:10;;;;;;;0.40;0.40;;;1.30;99.90;;;;;;5057512;28;21022;-83
2023/01/22 00:37:36;;;;;;;0.50;0.50;;;1.20;99.90;;;;;;5052933;28;20519;-82
2023/01/22 00:40:02;;;;;;;0.50;0.50;;;1.20;99.90;;;;;;5064325;28;20639;-82
2023/01/22 00:42:27;;;;;;;0.53;0.53;;;1.10;99.90;;;;;;5049604;28;20549;-82
2023/01/22 00:44:52;;;;;;;0.50;0.50;;;1.10;99.90;;;;;;5048834;28;20191;-83
2023/01/22 00:47:18;;;;;;;0.47;0.47;;;1.00;99.90;;;;;;5060577;28;20308;-82
2023/01/22 00:49:43;;;;;;;0.50;0.50;;;1.00;99.90;;;;;;5057790;28;20890;-83
2023/01/22 00:52:09;;;;;;;0.50;0.50;;;1.00;99.90;;;;;;5060255;28;20193;-83
2023/01/22 00:54:34;;;;;;;0.50;0.50;;;1.00;99.90;;;;;;5053871;28;20949;-83
2023/01/22 00:57:00;;;;;;;0.50;0.50;;;1.00;99.90;;;;;;5049915;28;20214;-82
2023/01/22 00:59:25;;;;;;;0.40;0.40;;;1.00;99.90;;;;;;5062908;28;20204;-83
2023/01/22 01:01:51;;;;;;;0.50;0.50;;;1.00;99.90;;;;;;5054751;28;20186;-83
2023/01/22 01:04:16;;;;;;;0.40;0.40;;;1.00;99.90;;;;;;5064282;28;20244;-82
2023/01/22 01:06:42;;;;;;;0.37;0.37;;;1.10;99.90;;;;;;5058088;28;20197;-82
2023/01/22 01:09:07;;;;;;;0.50;0.50;;;1.00;99.90;;;;;;5068783;28;20642;-83
2023/01/22 01:11:33;;;;;;;0.50;0.50;;;1.00;99.90;;;;;;5068188;28;20182;-83
2023/01/22 01:14:00;;;;;;;0.60;0.60;;;1.00;99.90;;;;;;5066074;28;20186;-83
2023/01/22 01:16:28;;;;;;;0.37;0.37;;;1.00;99.90;;;;;;5066486;28;20320;-83
2023/01/22 01:19:16;;;;;;;0.50;0.50;;;1.10;99.90;;;;;;5060944;28;20941;-83
2023/01/22 01:21:42;;;;;;;0.40;0.40;;;1.00;99.90;;;;;;5053750;28;20465;-83
2023/01/22 01:24:09;;;;;;;0.40;0.40;;;1.10;99.90;;;;;;5050332;28;20460;-82
2023/01/22 01:26:35;;;;;;;0.50;0.50;;;1.10;99.90;;;;;;5049661;28;20447;-83
2023/01/22 01:29:03;;;;;;;0.47;0.47;;;1.10;99.90;;;;;;5048768;28;20429;-83
2023/01/22 01:31:28;;;;;;;0.50;0.50;;;1.10;99.90;;;;;;5052698;28;20269;-83
2023/01/22 01:33:54;;;;;;;0.50;0.50;;;1.10;99.90;;;;;;5053602;28;20527;-83
2023/01/22 01:36:22;;;;;;;0.40;0.40;;;1.20;99.90;;;;;;5056119;28;20218;-83
2023/01/22 01:38:48;;;;;;;0.40;0.40;;;1.20;99.90;;;;;;5067097;28;20573;-83
2023/01/22 01:41:16;;;;;;;0.40;0.40;;;1.20;99.90;;;;;;5069906;28;20417;-83
2023/01/22 01:43:42;;;;;;;0.50;0.50;;;1.20;99.90;;;;;;5067485;28;20178;-83
2023/01/22 01:46:18;;;;;;;0.33;0.33;;;1.20;99.90;;;;;;5059556;28;20904;-83
2023/01/22 01:48:47;;;;;;;0.40;0.40;;;1.20;99.90;;;;;;5062354;28;20553;-82
2023/01/22 01:51:32;;;;;;;0.50;0.50;;;1.20;99.90;;;;;;5048542;28;20467;-83
2023/01/22 01:54:00;;;;;;;0.30;0.30;;;1.20;99.90;;;;;;5057497;28;20469;-83
2023/01/22 01:56:39;;;;;;;0.50;0.50;;;1.20;99.90;;;;;;5068181;28;20472;-83
2023/01/22 01:59:09;;;;;;;0.40;0.40;;;1.20;99.90;;;;;;5049492;28;20483;-83
2023/01/22 02:01:35;;;;;;;0.40;0.40;;;1.20;99.90;;;;;;5061749;28;20576;-83
2023/01/22 02:04:00;;;;;;;0.50;0.50;;;1.20;99.90;;;;;;5064205;28;20440;-83
2023/01/22 02:06:26;;;;;;;0.40;0.40;;;1.20;99.90;;;;;;5063021;28;20454;-83
2023/01/22 02:08:53;;;;;;;0.40;0.40;;;1.20;99.90;;;;;;5069330;28;20177;-83
2023/01/22 02:11:20;;;;;;;0.40;0.40;;;1.20;99.90;;;;;;5063461;28;20699;-83
2023/01/22 02:14:05;;;;;;;0.50;0.50;;;1.30;99.90;;;;;;5061770;28;20441;-82
2023/01/22 02:16:31;;;;;;;0.40;0.40;;;1.20;99.90;;;;;;5051305;28;20550;-83
2023/01/22 02:18:56;;;;;;;0.50;0.50;;;1.20;99.90;;;;;;5069549;28;20911;-83
2023/01/22 02:21:42;;;;;;;0.40;0.40;;;1.20;99.90;;;;;;5053894;28;20265;-82
2023/01/22 02:24:13;;;;;;;0.50;0.50;;;1.10;99.90;;;;;;5068766;28;20192;-83
2023/01/22 02:26:40;;;;;;;0.40;0.40;;;1.10;99.90;;;;;;5068805;28;20451;-82
2023/01/22 02:29:07;;;;;;;0.40;0.40;;;1.10;99.90;;;;;;5072504;28;20440;-83
2023/01/22 02:31:34;;;;;;;0.50;0.50;;;1.20;99.90;;;;;;5066449;28;20448;-82
2023/01/22 02:34:02;;;;;;;0.40;0.40;;;1.20;99.90;;;;;;5053665;28;20441;-83
2023/01/22 02:36:29;;;;;;;0.50;0.50;;;1.20;99.90;;;;;;5065053;28;20985;-82
2023/01/22 02:38:55;;;;;;;0.47;0.47;;;1.20;99.90;;;;;;5070870;28;20440;-83
2023/01/22 02:41:20;;;;;;;0.43;0.43;;;1.20;99.90;;;;;;5070378;28;20452;-83
2023/01/22 02:43:46;;;;;;;0.43;0.43;;;1.10;99.90;;;;;;5069991;28;20194;-82
2023/01/22 02:46:11;;;;;;;0.40;0.40;;;1.10;99.90;;;;;;5065160;28;20186;-82
2023/01/22 02:48:37;;;;;;;0.50;0.50;;;1.10;99.90;;;;;;5054893;28;20181;-83
2023/01/22 02:51:03;;;;;;;0.50;0.50;;;1.10;99.90;;;;;;5058609;28;20236;-83
2023/01/22 02:53:28;;;;;;;0.50;0.50;;;1.10;99.90;;;;;;5069271;28;20178;-83
2023/01/22 02:55:54;;;;;;;0.40;0.40;;;1.20;99.90;;;;;;5058663;28;20447;-82
2023/01/22 02:58:19;;;;;;;0.40;0.40;;;1.10;99.90;;;;;;5072005;28;20226;-83
2023/01/22 03:00:45;;;;;;;0.40;0.40;;;1.20;99.90;;;;;;5066827;28;20241;-83
2023/01/22 03:03:14;;;;;;;0.50;0.50;;;1.20;99.90;;;;;;5058817;28;20199;-83
2023/01/22 03:05:45;;;;;;;0.60;0.60;;;1.10;99.90;;;;;;5050597;28;20174;-83
2023/01/22 03:08:11;;;;;;;0.40;0.40;;;1.20;99.90;;;;;;5051451;28;20818;-83
2023/01/22 03:10:36;;;;;;;0.50;0.50;;;1.10;99.90;;;;;;5051921;28;20471;-83
2023/01/22 03:21:18;;;;;;;0.43;0.43;;;1.10;99.90;;;;;;5051832;28;20544;-83
2023/01/22 03:23:52;;;;;;;0.50;0.50;;;1.20;99.90;;;;;;5065024;28;20527;-84
2023/01/22 03:26:20;;;;;;;0.40;0.40;;;1.20;99.90;;;;;;5070096;28;20453;-82
2023/01/22 03:28:45;;;;;;;0.50;0.50;;;1.20;99.90;;;;;;5082788;28;20481;-83
2023/01/22 03:31:12;;;;;;;0.40;0.40;;;1.10;99.90;;;;;;5062029;28;20947;-82
2023/01/22 03:33:38;;;;;;;0.50;0.50;;;1.10;99.90;;;;;;5064657;28;20460;-83
2023/01/22 03:36:06;;;;;;;0.43;0.43;;;1.10;99.90;;;;;;5050791;28;20798;-82
2023/01/22 03:38:32;;;;;;;0.40;0.40;;;1.10;99.90;;;;;;5049827;28;20460;-82
2023/01/22 03:41:02;;;;;;;0.40;0.40;;;1.20;99.90;;;;;;5050335;28;20441;-82
2023/01/22 03:43:27;;;;;;;0.50;0.50;;;1.30;99.90;;;;;;5053888;28;20257;-82
2023/01/22 03:45:53;;;;;;;0.40;0.40;;;1.20;99.90;;;;;;5062221;28;20911;-82
2023/01/22 03:48:18;;;;;;;0.50;0.50;;;1.20;99.90;;;;;;5070290;28;20185;-82
2023/01/22 03:50:44;;;;;;;0.50;0.50;;;1.20;99.90;;;;;;5062674;28;20212;-82
2023/01/22 03:53:09;;;;;;;0.50;0.50;;;1.20;99.90;;;;;;5053497;28;20269;-82
2023/01/22 03:55:35;;;;;;;0.50;0.50;;;1.20;99.90;;;;;;5055895;28;21767;-81
2023/01/22 03:58:00;;;;;;;0.30;0.30;;;1.10;99.90;;;;;;5051409;28;20225;-82
2023/01/22 04:00:26;;;;;;;0.40;0.40;;;1.10;99.90;;;;;;5062057;28;20193;-82
2023/01/22 04:02:52;;;;;;;0.40;0.40;;;1.10;99.90;;;;;;5058766;28;20231;-82
2023/01/22 04:05:18;;;;;;;0.40;0.40;;;1.10;99.90;;;;;;5067715;28;20189;-82
2023/01/22 04:07:43;;;;;;;0.47;0.47;;;1.10;99.90;;;;;;5069321;28;20440;-82
2023/01/22 04:10:09;;;;;;;0.43;0.43;;;1.20;99.90;;;;;;5068489;28;20178;-81
2023/01/22 04:12:35;;;;;;;0.40;0.40;;;1.20;99.90;;;;;;5057492;28;20196;-82
2023/01/22 04:15:00;;;;;;;0.30;0.30;;;1.20;99.90;;;;;;5054833;28;20517;-82
2023/01/22 04:17:26;;;;;;;0.40;0.40;;;1.10;99.90;;;;;;5066885;28;20689;-81
2023/01/22 04:19:51;;;;;;;0.40;0.40;;;1.10;99.90;;;;;;5069707;28;20258;-81
2023/01/22 04:22:17;;;;;;;0.40;0.40;;;1.10;99.90;;;;;;5056391;28;20190;-82
2023/01/22 04:24:42;;;;;;;0.50;0.50;;;1.10;99.90;;;;;;5069679;28;20189;-82
2023/01/22 04:27:08;;;;;;;0.60;0.60;;;1.10;99.90;;;;;;5056010;28;20201;-82
2023/01/22 04:29:33;;;;;;;0.50;0.50;;;1.10;99.90;;;;;;5050448;28;20175;-82
2023/01/22 04:31:59;;;;;;;0.40;0.40;;;1.00;99.90;;;;;;5051377;28;20190;-81
2023/01/22 04:34:24;;;;;;;0.50;0.50;;;1.10;99.90;;;;;;5049502;28;20198;-81
2023/01/22 04:36:50;;;;;;;0.40;0.40;;;1.10;99.90;;;;;;5049863;28;20636;-81
2023/01/22 04:39:15;;;;;;;0.50;0.50;;;1.10;99.90;;;;;;5053878;28;20194;-81
2023/01/22 04:41:41;;;;;;;0.40;0.40;;;1.00;99.90;;;;;;5050413;28;20205;-82
2023/01/22 04:44:06;;;;;;;0.40;0.40;;;1.10;99.90;;;;;;5048665;28;20190;-82
2023/01/22 04:46:32;;;;;;;0.40;0.40;;;1.10;99.90;;;;;;5062206;28;20185;-82
2023/01/22 04:48:57;;;;;;;0.40;0.40;;;1.10;99.90;;;;;;5065645;28;20269;-82
2023/01/22 04:51:23;;;;;;;0.60;0.60;;;1.10;99.90;;;;;;5068629;28;20178;-82
2023/01/22 04:53:48;;;;;;;0.50;0.50;;;1.10;99.90;;;;;;5069377;28;20188;-81
2023/01/22 04:56:14;;;;;;;0.50;0.50;;;1.10;99.90;;;;;;5060070;28;20306;-81
2023/01/22 04:58:39;;;;;;;0.40;0.40;;;1.10;99.90;;;;;;5049050;28;20183;-81
2023/01/22 05:01:05;;;;;;;0.47;0.47;;;1.10;99.90;;;;;;5058108;28;20279;-81
2023/01/22 05:03:31;;;;;;;0.50;0.50;;;1.10;99.90;;;;;;5067675;28;20182;-81
2023/01/22 05:06:00;;;;;;;0.40;0.40;;;1.00;99.90;;;;;;5056330;28;20825;-81
2023/01/22 05:08:26;;;;;;;0.47;0.47;;;1.00;99.90;;;;;;5063790;28;20503;-82
2023/01/22 05:10:51;;;;;;;0.50;0.50;;;1.10;99.90;;;;;;5049556;28;20928;-82
2023/01/22 05:13:17;;;;;;;0.50;0.50;;;1.10;99.90;;;;;;5050379;28;20192;-81
2023/01/22 05:15:42;;;;;;;0.40;0.40;;;1.10;99.90;;;;;;5067166;28;20193;-81
2023/01/22 05:18:08;;;;;;;0.40;0.40;;;1.10;99.90;;;;;;5070005;28;20256;-81
2023/01/22 05:20:33;;;;;;;0.40;0.40;;;1.10;99.90;;;;;;5055357;28;20194;-81
2023/01/22 05:22:59;;;;;;;0.40;0.40;;;1.10;99.90;;;;;;5048496;28;20204;-82
2023/01/22 05:25:24;;;;;;;0.50;0.50;;;1.10;99.90;;;;;;5073865;28;20180;-82
2023/01/22 05:27:50;;;;;;;0.40;0.40;;;1.10;99.90;;;;;;5060232;28;20235;-82
2023/01/22 05:30:15;;;;;;;0.30;0.30;;;1.10;99.90;;;;;;5068300;28;20711;-81
2023/01/22 05:32:41;;;;;;;0.50;0.50;;;1.10;99.90;;;;;;5071098;28;20171;-82
2023/01/22 05:35:07;;;;;;;0.50;0.50;;;1.10;99.90;;;;;;5058204;28;20191;-82
2023/01/22 05:37:32;;;;;;;0.47;0.47;;;1.10;99.90;;;;;;5069528;28;20593;-82
2023/01/22 05:39:58;;;;;;;0.50;0.50;;;1.10;99.90;;;;;;5067664;28;20190;-82
2023/01/22 05:42:23;;;;;;;0.53;0.53;;;1.10;99.90;;;;;;5052616;28;20582;-82
2023/01/22 05:44:49;;;;;;;0.40;0.40;;;1.10;99.90;;;;;;5048060;28;20681;-82
2023/01/22 05:47:14;;;;;;;0.50;0.50;;;1.10;99.90;;;;;;5049778;28;20191;-82
2023/01/22 05:49:40;;;;;;;0.40;0.40;;;1.10;99.90;;;;;;5049891;28;20235;-82
2023/01/22 05:52:09;;;;;;;0.40;0.40;;;1.10;99.90;;;;;;5048236;28;20800;-82
2023/01/22 05:54:35;;;;;;;0.50;0.50;;;1.10;99.90;;;;;;5061091;28;20189;-82
2023/01/22 05:57:00;;;;;;;0.50;0.50;;;1.10;99.90;;;;;;5052484;28;20496;-82
2023/01/22 05:59:26;;;;;;;0.50;0.50;;;1.10;99.90;;;;;;5059129;28;20436;-82
2023/01/22 06:01:51;;;;;;;0.50;0.50;;;1.10;99.90;;;;;;5065992;28;20230;-82
2023/01/22 06:04:17;;;;;;;0.50;0.50;;;1.20;99.90;;;;;;5058492;28;20185;-82
2023/01/22 06:06:42;;;;;;;0.50;0.50;;;1.10;99.90;;;;;;5071531;28;20229;-82
2023/01/22 06:09:11;;;;;;;0.50;0.50;;;1.10;99.90;;;;;;5067250;28;20190;-82
2023/01/22 06:11:36;;;;;;;0.50;0.50;;;1.20;99.90;;;;;;5055329;28;20677;-82
2023/01/22 06:14:02;;;;;;;0.50;0.50;;;1.20;99.90;;;;;;5052974;28;20471;-81
2023/01/22 06:16:28;;;;;;;0.47;0.47;;;1.20;99.90;;;;;;5053233;28;20237;-82
2023/01/22 06:18:53;;;;;;;0.50;0.50;;;1.20;99.90;;;;;;5052684;28;20827;-81
2023/01/22 06:21:19;;;;;;;0.50;0.50;;;1.20;99.90;;;;;;5060525;28;20240;-82
2023/01/22 06:23:44;;;;;;;0.50;0.50;;;1.20;99.90;;;;;;5067008;28;20194;-81
2023/01/22 06:26:10;;;;;;;0.40;0.40;;;1.20;99.90;;;;;;5056887;28;20638;-81
2023/01/22 06:28:35;;;;;;;0.50;0.50;;;1.20;99.90;;;;;;5058023;28;20187;-81
2023/01/22 06:31:06;;;;;;;0.40;0.40;;;1.20;99.90;;;;;;5058365;28;20254;-83
2023/01/22 06:33:33;;;;;;;0.30;0.30;;;1.20;99.90;;;;;;5061981;28;20297;-82
2023/01/22 06:35:59;;;;;;;0.50;0.50;;;1.20;99.90;;;;;;5059196;28;20432;-82
2023/01/22 06:38:26;;;;;;;0.40;0.40;;;1.20;99.90;;;;;;5052325;28;20483;-81
2023/01/22 06:40:53;;;;;;;0.60;0.60;;;1.20;99.90;;;;;;5052813;28;20186;-81
2023/01/22 06:43:18;;;;;;;0.30;0.30;;;1.20;99.90;;;;;;5068349;28;20471;-82
2023/01/22 06:45:44;;;;;;;0.40;0.40;;;1.20;99.90;;;;;;5067644;28;20519;-81
2023/01/22 06:48:09;;;;;;;0.47;0.47;;;1.20;99.90;;;;;;5058377;28;20179;-81
2023/01/22 06:50:35;;;;;;;0.40;0.40;;;1.20;99.90;;;;;;5066573;28;20193;-81
2023/01/22 06:53:00;;;;;;;0.50;0.50;;;1.30;99.90;;;;;;5069757;28;20186;-82
2023/01/22 06:55:26;;;;;;;0.50;0.50;;;1.30;99.90;;;;;;5067961;28;20277;-81
2023/01/22 06:57:55;;;;;;;0.40;0.40;;;1.30;99.90;;;;;;5066404;28;20822;-81
2023/01/22 07:00:21;;;;;;;0.50;0.50;;;1.20;99.90;;;;;;5057793;28;20192;-81
2023/01/22 07:02:47;;;;;;;0.43;0.43;;;1.30;99.90;;;;;;5044828;28;20980;-81
2023/01/22 07:05:14;;;;;;;0.40;0.40;;;1.30;99.90;;;;;;5058406;28;20440;-82
2023/01/22 07:07:42;;;;;;;0.50;0.50;;;1.30;99.90;;;;;;5052298;28;20190;-81
2023/01/22 07:10:09;;;;;;;0.43;0.43;;;1.30;99.90;;;;;;5066865;28;20959;-81
2023/01/22 07:12:34;;;;;;;0.50;0.50;;;1.30;99.90;;;;;;5060583;28;20594;-80
2023/01/22 07:15:00;;;;;;;0.60;0.60;;;1.30;99.90;;;;;;5061527;28;20554;-81
2023/01/22 07:17:26;;;;;;;0.40;0.40;;;1.40;99.90;;;;;;5060289;28;20332;-81
2023/01/22 07:19:51;;;;;;;0.40;0.40;;;1.40;99.90;;;;;;5059778;28;20194;-81
2023/01/22 07:22:17;;;;;;;0.40;0.40;;;1.40;99.90;;;;;;5055429;28;20186;-81
2023/01/22 07:24:42;;;;;;;0.40;0.40;;;1.30;99.90;;;;;;5055875;28;20235;-81
2023/01/22 07:27:08;;;;;;;0.40;0.40;;;1.30;99.90;;;;;;5065073;28;20185;-81
2023/01/22 07:29:33;;;;;;;0.47;0.47;;;1.30;99.90;;;;;;5064180;28;20277;-82
2023/01/22 07:31:59;;;;;;;0.40;0.40;;;1.30;99.90;;;;;;5055645;28;21814;-83
2023/01/22 07:34:24;;;;;;;0.50;0.50;;;1.40;99.90;;;;;;5051309;28;20269;-82
2023/01/22 07:36:50;;;;;;;0.50;0.50;;;1.40;99.90;;;;;;5059375;28;20222;-84
2023/01/22 07:39:15;;;;;;;0.47;0.47;;;1.40;99.90;;;;;;5048322;28;20189;-82
2023/01/22 07:41:41;;;;;;;0.40;0.40;;;1.40;99.90;;;;;;5055850;28;20183;-82
2023/01/22 07:44:07;;;;;;;0.40;0.40;;;1.40;99.90;;;;;;5064912;28;20185;-82
2023/01/22 07:46:34;;;;;;;0.40;0.40;;;1.40;99.90;;;;;;5055443;28;20193;-82
2023/01/22 07:49:00;;;;;;;0.40;0.40;;;1.40;99.90;;;;;;5057034;28;20440;-81
2023/01/22 07:51:25;;;;;;;0.40;0.40;;;1.40;99.90;;;;;;5051288;28;20925;-82
2023/01/22 07:53:51;;;;;;;0.50;0.50;;;1.40;99.90;;;;;;5082174;28;20195;-82
2023/01/22 07:56:18;;;;;;;0.50;0.50;;;1.40;99.90;;;;;;5048416;28;20622;-81
2023/01/22 07:58:44;;;;;;;0.47;0.47;;;1.40;99.90;;;;;;5065859;28;20269;-81
2023/01/22 08:01:10;;;;;;;0.50;0.50;;;1.40;99.90;;;;;;5060037;28;20440;-82
2023/01/22 08:03:36;;;;;;;0.40;0.40;;;1.40;99.90;;;;;;5059466;28;20473;-83
2023/01/22 08:06:10;;;;;;;0.40;0.40;;;1.50;99.90;;;;;;5063046;28;20444;-83
2023/01/22 08:08:36;;;;;;;0.50;0.50;;;1.50;99.90;;;;;;5059028;28;20570;-82
2023/01/22 08:11:02;;;;;;;0.50;0.50;;;1.50;99.90;;;;;;5066602;28;20468;-82
2023/01/22 08:13:27;;;;;;;0.40;0.40;;;1.50;99.90;;;;;;5063181;28;20478;-83
2023/01/22 08:15:56;;;;;;;0.40;0.40;;;1.50;99.90;;;;;;5062370;28;20640;-83
2023/01/22 08:18:22;;;;;;;0.50;0.50;;;1.50;99.90;;;;;;5061596;28;20239;-83
2023/01/22 08:20:47;;;;;;;0.50;0.50;;;1.50;99.90;;;;;;5049267;28;20428;-82
2023/01/22 08:23:13;;;;;;;0.40;0.40;;;1.60;99.90;;;;;;5057225;28;20551;-83
2023/01/22 08:25:39;;;;;;;0.50;0.50;;;1.60;99.90;;;;;;5062356;28;20201;-82
2023/01/22 08:28:06;;;;;;;0.50;0.50;;;1.60;99.90;;;;;;5065800;28;20658;-82
2023/01/22 08:30:33;;;;;;;0.50;0.50;;;1.60;99.90;;;;;;5059673;28;20182;-82
2023/01/22 08:32:59;;;;;;;0.40;0.40;;;1.60;99.90;;;;;;5053867;28;20444;-82
2023/01/22 08:35:24;;;;;;;0.40;0.40;;;1.60;99.90;;;;;;5065427;28;20626;-83
2023/01/22 08:37:50;;;;;;;0.40;0.40;;;1.70;99.90;;;;;;5061555;28;20606;-82
2023/01/22 08:40:16;;;;;;;0.40;0.40;;;1.60;99.90;;;;;;5060252;28;20182;-82
2023/01/22 08:42:42;;;;;;;0.40;0.40;;;1.70;99.90;;;;;;5086476;28;20186;-82
2023/01/22 08:45:08;;;;;;;0.50;0.50;;;1.70;99.90;;;;;;5057168;28;20445;-82
2023/01/22 08:47:34;;;;;;;0.50;0.50;;;1.70;99.90;;;;;;5054579;28;20661;-81
2023/01/22 08:50:03;;;;;;;0.43;0.43;;;1.80;99.90;;;;;;5048676;28;20480;-83
2023/01/22 08:52:28;;;;;;;0.43;0.43;;;1.80;99.90;;;;;;5054501;28;20182;-82
2023/01/22 08:54:53;;;;;;;0.30;0.30;;;1.80;99.90;;;;;;5063177;28;20540;-82
2023/01/22 08:57:19;;;;;;;0.50;0.50;;;1.80;99.90;;;;;;5058802;28;21258;-82
2023/01/22 08:59:45;;;;;;;0.60;0.60;;;1.80;99.90;;;;;;5066487;28;20202;-82
2023/01/22 09:02:13;;;;;;;0.50;0.50;;;1.90;99.90;;;;;;5061151;28;20233;-81
2023/01/22 09:04:39;;;;;;;0.50;0.50;;;1.90;99.90;;;;;;5062737;28;20178;-82
2023/01/22 09:07:04;;;;;;;0.50;0.50;;;1.90;99.90;;;;;;5049713;28;20972;-82
2023/01/22 09:09:30;;;;;;;0.50;0.50;;;1.90;99.90;;;;;;5046658;28;20727;-81
2023/01/22 09:11:55;;;;;;;0.50;0.50;;;2.00;99.90;;;;;;5088765;28;20196;-82
2023/01/22 09:14:21;;;;;;;0.40;0.40;;;2.00;99.90;;;;;;5063283;28;20256;-82
2023/01/22 09:16:46;;;;;;;0.50;0.50;;;2.00;99.90;;;;;;5056456;28;20233;-78
2023/01/22 09:19:12;;;;;;;0.40;0.40;;;2.00;99.90;;;;;;5055656;28;20186;-80
2023/01/22 09:21:38;;;;;;;0.40;0.40;;;2.00;99.90;;;;;;5058779;28;20257;-81
2023/01/22 09:24:04;;;;;;;0.50;0.50;;;2.00;99.90;;;;;;5059170;28;20272;-81
2023/01/22 09:26:31;;;;;;;0.40;0.40;;;2.00;99.90;;;;;;5058807;28;20193;-80
2023/01/22 09:28:57;;;;;;;0.50;0.50;;;2.00;99.90;;;;;;5058780;28;20452;-80
2023/01/22 09:31:23;;;;;;;0.40;0.40;;;2.10;99.90;;;;;;5059559;28;20962;-80
2023/01/22 09:33:50;;;;;;;0.50;0.50;;;2.10;99.90;;;;;;5058709;28;20440;-80
2023/01/22 09:36:15;;;;;;;0.40;0.40;;;2.10;99.90;;;;;;5067724;28;20220;-81
2023/01/22 09:38:42;;;;;;;0.50;0.50;;;2.20;99.90;;;;;;5060040;28;20451;-80
2023/01/22 09:41:26;;;;;;;0.40;0.40;;;2.10;99.90;;;;;;5054519;28;20186;-80
2023/01/22 09:44:14;;;;;;;0.40;0.40;;;2.20;99.90;;;;;;5062992;28;20445;-80
2023/01/22 09:47:06;;;;;;;0.50;0.50;;;2.20;99.90;;;;;;5055563;28;20557;-81
2023/01/22 09:49:37;;;;;;;0.40;0.40;;;2.30;99.90;;;;;;5052948;28;20454;-81
2023/01/22 09:52:04;;;;;;;0.40;0.40;;;2.30;99.90;;;;;;5071148;28;21004;-81
2023/01/22 09:54:30;;;;;;;0.40;0.40;;;2.30;99.90;;;;;;5052797;28;20528;-81
2023/01/22 09:57:02;;;;;;;0.50;0.50;;;2.40;99.90;;;;;;5056530;28;20459;-81
2023/01/22 09:59:40;;;;;;;0.43;0.43;;;2.40;99.90;;;;;;5053862;28;20499;-81
2023/01/22 10:02:28;;;;;;;0.40;0.40;;;2.40;99.90;;;;;;5083435;28;20448;-81
2023/01/22 10:05:12;;;;;;;0.50;0.50;;;2.50;99.90;;;;;;5062203;28;20445;-81
2023/01/22 10:07:43;;;;;;;0.40;0.40;;;2.50;99.90;;;;;;5059849;28;20481;-81
2023/01/22 10:10:19;;;;;;;0.40;0.40;;;2.60;99.90;;;;;;5064901;28;20515;-81
2023/01/22 10:12:56;;;;;;;0.40;0.40;;;2.70;99.90;;;;;;5070972;28;20789;-81
2023/01/22 10:15:23;;;;;;;0.40;0.40;;;2.70;99.90;;;;;;5067421;28;20456;-81
2023/01/22 10:17:49;;;;;;;0.50;0.50;;;2.70;99.90;;;;;;5065850;28;21014;-81
2023/01/22 10:20:17;;;;;;;0.40;0.40;;;2.70;99.90;;;;;;5063742;28;20440;-81
2023/01/22 10:22:43;;;;;;;0.50;0.50;;;2.80;99.90;;;;;;5051849;28;20507;-83
2023/01/22 10:25:12;;;;;;;0.50;0.50;;;2.80;99.90;;;;;;5068005;28;20561;-83
2023/01/22 10:27:38;;;;;;;0.40;0.40;;;2.80;99.90;;;;;;5051721;28;20452;-81
2023/01/22 10:30:12;;;;;;;0.40;0.40;;;2.90;99.90;;;;;;5055449;28;20448;-81
2023/01/22 10:32:38;;;;;;;0.40;0.40;;;2.90;99.90;;;;;;5058899;28;21013;-81
2023/01/22 10:35:09;;;;;;;0.40;0.40;;;2.90;99.90;;;;;;5052973;28;20441;-81
2023/01/22 10:37:50;;;;;;;0.40;0.40;;;2.90;99.90;;;;;;5062634;28;20221;-81
2023/01/22 10:40:31;;;;;;;0.40;0.40;;;2.90;99.90;;;;;;5071929;28;20481;-81
2023/01/22 10:43:15;;;;;;;0.50;0.50;;;2.90;99.90;;;;;;5064955;28;20516;-81
2023/01/22 10:45:54;;;;;;;0.50;0.50;;;2.90;99.90;;;;;;5054770;28;20439;-83
2023/01/22 10:48:21;;;;;;;0.50;0.50;;;3.00;99.90;;;;;;5057051;28;20491;-81
2023/01/22 10:51:04;;;;;;;0.40;0.40;;;3.00;99.90;;;;;;5058749;28;20479;-83
2023/01/22 10:53:35;;;;;;;0.50;0.50;;;3.00;99.90;;;;;;5086064;28;20467;-84
2023/01/22 10:56:03;;;;;;;0.50;0.50;;;3.00;99.90;;;;;;5060431;28;20441;-83
2023/01/22 10:58:33;;;;;;;0.40;0.40;;;3.00;99.90;;;;;;5058334;28;20531;-84
2023/01/22 11:01:05;;;;;;;0.40;0.40;;;3.00;99.90;;;;;;5053301;28;20535;-82
2023/01/22 11:03:34;;;;;;;0.40;0.40;;;3.10;99.90;;;;;;5051819;28;20437;-82
2023/01/22 11:06:05;;;;;;;0.40;0.40;;;3.10;99.90;;;;;;5064955;28;20450;-82
2023/01/22 11:08:44;;;;;;;0.40;0.40;;;3.10;99.90;;;;;;5062540;28;20445;-82
2023/01/22 11:11:13;;;;;;;0.40;0.40;;;3.10;99.90;;;;;;5066614;28;20445;-83
2023/01/22 11:14:02;;;;;;;0.40;0.40;;;3.10;99.90;;;;;;5060852;28;20441;-83
2023/01/22 11:16:33;;;;;;;0.40;0.40;;;3.10;99.90;;;;;;5055624;28;20550;-81
2023/01/22 11:19:18;;;;;;;0.50;0.50;;;3.10;99.90;;;;;;5052213;28;20475;-81
2023/01/22 11:21:50;;;;;;;0.40;0.40;;;3.10;99.90;;;;;;5058196;28;20437;-81
2023/01/22 11:24:21;;;;;;;0.40;0.40;;;3.10;99.90;;;;;;5054135;28;21219;-80
2023/01/22 11:27:05;;;;;;;0.40;0.40;;;3.20;99.90;;;;;;5062706;28;20485;-81
2023/01/22 11:29:57;;;;;;;0.40;0.40;;;3.20;99.90;;;;;;5053290;28;21010;-81
2023/01/22 11:32:37;;;;;;;0.43;0.43;;;3.20;99.90;;;;;;5053750;28;20449;-81
2023/01/22 11:35:38;;;;;;;0.40;0.40;;;3.20;99.90;;;;;;5060619;28;20588;-81
2023/01/22 11:38:09;;;;;;;0.40;0.40;;;3.20;99.90;;;;;;5067137;28;20526;-82
2023/01/22 11:40:59;;;;;;;0.30;0.30;;;3.20;99.90;;;;;;5057884;28;20532;-83
2023/01/22 11:43:55;;;;;;;0.40;0.40;;;3.10;99.90;;;;;;5066682;28;20442;-83
2023/01/22 11:46:47;;;;;;;0.30;0.30;;;3.10;99.90;;;;;;5057850;28;20587;-81
2023/01/22 11:49:22;;;;;;;0.30;0.30;;;3.10;99.90;;;;;;5071214;28;20878;-82
2023/01/22 11:52:05;;;;;;;0.40;0.40;;;3.10;99.90;;;;;;5062915;28;20447;-83
2023/01/22 11:54:50;;;;;;;0.40;0.40;;;3.20;99.90;;;;;;5067686;28;20908;-82
2023/01/22 11:57:24;;;;;;;0.37;0.37;;;3.20;99.90;;;;;;5062018;28;20523;-84
2023/01/22 12:00:16;;;;;;;0.40;0.40;;;3.10;99.90;;;;;;5059624;28;20544;-82
2023/01/22 12:03:00;;;;;;;0.50;0.50;;;3.20;99.90;;;;;;5068611;28;20447;-81
2023/01/22 12:05:44;;;;;;;0.50;0.50;;;3.10;99.90;;;;;;5064584;28;20447;-82
2023/01/22 12:08:36;;;;;;;0.40;0.40;;;3.10;99.90;;;;;;5058722;28;20444;-81
2023/01/22 12:11:28;;;;;;;0.40;0.40;;;3.20;99.90;;;;;;5060828;28;20447;-81
2023/01/22 12:14:23;;;;;;;0.33;0.33;;;3.10;99.90;;;;;;5055474;28;20441;-82
2023/01/22 12:17:15;;;;;;;0.40;0.40;;;3.20;99.90;;;;;;5092963;22;20482;-81
2023/01/22 12:20:18;;;;;;;0.43;0.43;;;3.20;99.90;;;;;;5035584;28;20442;-82
2023/01/22 12:22:56;;;;;;;0.43;0.43;;;3.20;99.90;;;;;;5025163;28;20481;-82
2023/01/22 12:25:42;;;;;;;0.50;0.50;;;3.20;99.90;;;;;;5040301;28;20482;-82
2023/01/22 12:28:20;;;;;;;0.40;0.40;;;3.20;99.90;;;;;;5025539;28;21112;-82
2023/01/22 12:31:04;;;;;;;0.40;0.40;;;3.20;99.90;;;;;;5018728;28;20961;-82
2023/01/22 12:33:37;;;;;;;0.40;0.40;;;3.30;99.90;;;;;;5025719;28;20450;-82
2023/01/22 12:36:04;;;;;;;0.30;0.30;;;3.30;99.90;;;;;;5042583;28;20449;-82
2023/01/22 12:38:40;;;;;;;0.40;0.40;;;3.30;99.90;;;;;;5028144;28;20474;-82
2023/01/22 12:41:17;;;;;;;0.40;0.40;;;3.20;99.90;;;;;;5026155;28;20592;-81
2023/01/22 12:43:56;;;;;;;0.40;0.40;;;3.20;99.90;;;;;;5023835;28;20965;-83
2023/01/22 12:46:37;;;;;;;0.40;0.40;;;3.20;99.90;;;;;;5027653;28;20437;-83
2023/01/22 12:49:15;;;;;;;0.40;0.40;;;3.20;99.90;;;;;;5028674;28;20507;-82
2023/01/22 12:51:43;;;;;;;0.30;0.30;;;3.20;99.90;;;;;;5028378;28;20441;-81
2023/01/22 12:54:26;;;;;;;0.40;0.40;;;3.10;99.90;;;;;;5031359;28;20973;-81
2023/01/22 12:57:08;;;;;;;0.43;0.43;;;3.10;99.90;;;;;;5029784;28;20906;-81
2023/01/22 12:59:33;;;;;;;0.40;0.40;;;3.10;99.90;;;;;;5024868;28;20466;-81
2023/01/22 13:02:02;;;;;;;0.40;0.40;;;3.10;99.90;;;;;;5030780;28;20461;-80
2023/01/22 13:04:30;;;;;;;0.43;0.43;;;3.10;99.90;;;;;;5030270;28;20191;-82
2023/01/22 13:07:27;;;;;;;0.50;0.50;;;3.10;99.90;;;;;;5028390;28;20481;-80
2023/01/22 13:10:01;;;;;;;0.50;0.50;;;3.10;99.90;;;;;;5012948;28;20507;-80
2023/01/22 13:12:35;;;;;;;0.47;0.47;;;3.10;99.90;;;;;;5022535;28;20449;-81
2023/01/22 13:15:04;;;;;;;0.40;0.40;;;3.10;99.90;;;;;;5026669;28;20453;-81
2023/01/22 13:17:30;;;;;;;0.40;0.40;;;3.10;99.90;;;;;;5027275;28;20547;-82